Time;durP1;ratioP1;P1;durP2;ratioP2;P2;SDS_P1;SDS_P2;PMS_P1;PMS_P2;Temp;Humidity;BMP_temperature;BMP_pressure;BME280_temperature;BME280_humidity;BME280_pressure;Samples;Min_cycle;Max_cycle;Signal;HPM_P1;HPM_P2
2022/04/04 00:00:18;;;;;;;10.95;7.15;;;;;;;0.71;92.53;101730.94;1035880;28;20308;-78
2022/04/04 00:00:49;;;;;;;8.02;7.15;;;;;;;0.68;92.91;101727.75;1040015;28;20292;-77
2022/04/04 00:01:21;;;;;;;9.00;7.43;;;;;;;0.70;92.77;101734.53;1040798;28;20817;-78
2022/04/04 00:01:53;;;;;;;7.97;7.28;;;;;;;0.61;92.57;101740.56;1047937;28;20301;-78
2022/04/04 00:02:25;;;;;;;8.55;7.60;;;;;;;0.65;92.79;101734.09;1047163;28;20326;-78
2022/04/04 00:02:56;;;;;;;8.95;7.85;;;;;;;0.67;92.87;101734.78;1046346;28;20295;-78
2022/04/04 00:03:28;;;;;;;13.77;7.13;;;;;;;0.63;93.24;101732.56;1043305;28;20307;-78
2022/04/04 00:04:00;;;;;;;11.07;7.88;;;;;;;0.63;92.81;101728.16;1047905;28;20736;-78
2022/04/04 00:04:31;;;;;;;8.90;7.82;;;;;;;0.60;93.02;101728.41;1048066;28;20359;-79
2022/04/04 00:05:04;;;;;;;9.77;7.88;;;;;;;0.63;93.16;101728.16;1047870;28;20293;-79
2022/04/04 00:05:36;;;;;;;10.10;7.43;;;;;;;0.63;93.13;101728.16;1047960;28;20306;-79
2022/04/04 00:06:08;;;;;;;8.85;7.20;;;;;;;0.56;93.02;101717.34;1047718;28;20333;-79
2022/04/04 00:06:40;;;;;;;10.32;8.85;;;;;;;0.63;93.27;101730.78;1048088;28;20286;-79
2022/04/04 00:07:11;;;;;;;10.70;7.75;;;;;;;0.59;93.26;101726.75;1041685;28;20300;-79
2022/04/04 00:07:43;;;;;;;11.60;7.72;;;;;;;0.61;93.27;101724.81;1047952;28;20479;-79
2022/04/04 00:08:14;;;;;;;8.70;7.90;;;;;;;0.59;93.02;101718.88;1048104;28;20299;-78
2022/04/04 00:08:46;;;;;;;12.77;7.97;;;;;;;0.59;93.39;101726.75;1044117;28;20303;-79
2022/04/04 00:09:17;;;;;;;8.60;7.57;;;;;;;0.64;93.21;101718.50;1043008;28;20381;-79
2022/04/04 00:09:49;;;;;;;10.48;8.68;;;;;;;0.63;93.41;101722.91;1042409;28;20329;-79
2022/04/04 00:10:21;;;;;;;10.68;8.13;;;;;;;0.58;92.94;101723.28;1044095;28;20314;-78
2022/04/04 00:10:52;;;;;;;9.00;8.10;;;;;;;0.54;93.82;101716.63;1047033;28;20299;-79
2022/04/04 00:11:24;;;;;;;9.15;7.60;;;;;;;0.50;93.46;101722.25;1044055;28;20307;-78
2022/04/04 00:11:55;;;;;;;14.23;8.82;;;;;;;0.43;93.29;101710.63;1043969;28;20310;-78
2022/04/04 00:12:27;;;;;;;8.82;7.93;;;;;;;0.50;93.29;101719.63;1043800;28;20299;-79
2022/04/04 00:12:58;;;;;;;9.20;8.30;;;;;;;0.55;93.56;101712.25;1043568;28;20307;-79
2022/04/04 00:13:30;;;;;;;9.48;8.57;;;;;;;0.54;93.71;101713.16;1033185;28;20298;-79
2022/04/04 00:14:03;;;;;;;12.68;8.27;;;;;;;0.66;93.75;101713.94;1038620;28;20307;-79
2022/04/04 00:14:35;;;;;;;8.48;7.68;;;;;;;0.68;93.04;101715.47;1035370;28;20347;-79
2022/04/04 00:15:07;;;;;;;8.80;8.00;;;;;;;0.63;93.50;101715.03;1034516;28;20293;-79
2022/04/04 00:15:38;;;;;;;11.85;7.72;;;;;;;0.62;93.60;101710.75;1042448;28;20362;-79
2022/04/04 00:16:10;;;;;;;12.20;8.40;;;;;;;0.61;93.44;101714.34;1040325;28;20296;-79
2022/04/04 00:16:42;;;;;;;10.50;8.82;;;;;;;0.61;93.34;101714.34;1045991;28;20370;-79
2022/04/04 00:17:14;;;;;;;10.93;8.77;;;;;;;0.63;93.68;101708.97;1046609;28;20324;-79
2022/04/04 00:17:45;;;;;;;9.73;8.82;;;;;;;0.62;92.86;101705.50;1044070;28;20300;-79
2022/04/04 00:18:17;;;;;;;9.57;8.35;;;;;;;0.67;93.25;101703.31;1046507;28;20287;-79
2022/04/04 00:18:49;;;;;;;9.32;8.20;;;;;;;0.63;93.50;101701.94;1046525;28;20329;-79
2022/04/04 00:19:22;;;;;;;9.23;8.32;;;;;;;0.52;93.52;101699.38;1044038;28;20749;-79
2022/04/04 00:19:54;;;;;;;13.43;8.35;;;;;;;0.53;93.66;101698.41;1043955;28;20295;-79
2022/04/04 00:20:27;;;;;;;11.55;9.02;;;;;;;0.52;93.27;101694.97;1041333;28;20371;-79
2022/04/04 00:21:00;;;;;;;9.77;8.85;;;;;;;0.50;94.00;101696.88;1039551;28;20414;-79
2022/04/04 00:21:31;;;;;;;9.93;8.63;;;;;;;0.50;94.15;101696.06;1040601;28;20300;-79
2022/04/04 00:22:03;;;;;;;10.65;8.40;;;;;;;0.60;93.64;101696.94;1035509;28;20386;-79
2022/04/04 00:22:35;;;;;;;13.43;9.65;;;;;;;0.59;93.74;101693.50;1036892;28;20300;-79
2022/04/04 00:23:12;;;;;;;11.20;8.95;;;;;;;0.64;93.58;101687.03;1039337;28;20669;-78
2022/04/04 00:23:44;;;;;;;13.27;9.18;;;;;;;0.67;93.60;101684.97;1042007;28;20829;-79
2022/04/04 00:24:15;;;;;;;9.73;8.73;;;;;;;0.59;93.85;101695.28;1043773;28;20291;-79
2022/04/04 00:24:47;;;;;;;11.05;9.30;;;;;;;0.64;93.82;101695.72;1044978;28;20549;-79
2022/04/04 00:25:19;;;;;;;10.57;8.85;;;;;;;0.66;93.94;101695.59;1047550;28;20298;-79
2022/04/04 00:25:50;;;;;;;10.63;9.43;;;;;;;0.68;93.67;101691.88;1043863;28;20301;-79
2022/04/04 00:26:22;;;;;;;11.77;9.00;;;;;;;0.69;93.86;101690.91;1045209;28;20664;-79
2022/04/04 00:26:53;;;;;;;10.75;9.65;;;;;;;0.65;93.58;101696.56;1048256;28;20303;-78
2022/04/04 00:27:25;;;;;;;11.10;9.85;;;;;;;0.64;93.80;101687.84;1047935;28;20294;-79
2022/04/04 00:27:57;;;;;;;11.45;9.35;;;;;;;0.67;93.86;101682.34;1043647;28;20673;-78
2022/04/04 00:28:28;;;;;;;12.45;9.52;;;;;;;0.64;94.12;101684.41;1039520;28;20815;-79
2022/04/04 00:29:00;;;;;;;9.27;8.38;;;;;;;0.65;93.87;101697.38;1040338;28;20311;-79
2022/04/04 00:29:32;;;;;;;11.38;10.30;;;;;;;0.64;93.64;101687.84;1037393;28;20781;-79
2022/04/04 00:30:04;;;;;;;11.73;9.65;;;;;;;0.64;93.70;101687.84;1043358;28;20334;-79
2022/04/04 00:30:36;;;;;;;12.05;9.65;;;;;;;0.70;93.99;101682.09;1044338;28;20299;-79
2022/04/04 00:31:08;;;;;;;10.98;9.68;;;;;;;0.71;93.81;101683.75;1048347;28;20695;-79
2022/04/04 00:31:39;;;;;;;11.77;10.45;;;;;;;0.72;93.54;101685.41;1048140;28;20306;-79
2022/04/04 00:32:11;;;;;;;17.23;10.15;;;;;;;0.72;93.86;101681.94;1047947;28;20329;-79
2022/04/04 00:32:43;;;;;;;11.90;10.18;;;;;;;0.67;93.78;101684.97;1047826;28;20306;-80
2022/04/04 00:33:15;;;;;;;14.73;9.57;;;;;;;0.70;93.98;101679.47;1042104;28;20299;-79
2022/04/04 00:33:48;;;;;;;14.68;11.00;;;;;;;0.70;93.73;101681.25;1039450;28;20316;-79
2022/04/04 00:34:20;;;;;;;11.95;10.45;;;;;;;0.69;93.94;101679.59;1036226;28;20667;-79
2022/04/04 00:34:51;;;;;;;12.55;9.35;;;;;;;0.73;93.63;101681.00;1040440;28;20307;-80
2022/04/04 00:35:23;;;;;;;11.25;10.15;;;;;;;0.71;94.10;101683.75;1043127;28;20646;-80
2022/04/04 00:35:54;;;;;;;15.98;11.02;;;;;;;0.70;93.92;101679.47;1043627;28;20913;-79
2022/04/04 00:36:26;;;;;;;11.60;10.32;;;;;;;0.68;93.84;101678.75;1043973;28;20306;-78
2022/04/04 00:36:57;;;;;;;10.20;9.30;;;;;;;0.72;93.95;101677.53;1043983;28;20796;-79
2022/04/04 00:37:30;;;;;;;11.15;10.00;;;;;;;0.68;94.07;101681.38;1044051;28;20780;-78
2022/04/04 00:38:03;;;;;;;14.70;9.45;;;;;;;0.70;94.02;101676.84;1043634;28;20295;-79
2022/04/04 00:38:34;;;;;;;10.88;9.85;;;;;;;0.74;93.69;101678.22;1039542;28;20299;-78
2022/04/04 00:39:06;;;;;;;12.10;9.88;;;;;;;0.73;94.11;101679.19;1035258;28;20301;-77
2022/04/04 00:39:37;;;;;;;12.27;10.05;;;;;;;0.69;93.72;101680.44;1036472;28;20347;-78
2022/04/04 00:40:09;;;;;;;15.02;11.32;;;;;;;0.73;93.87;101676.56;1043598;28;20657;-78
2022/04/04 00:40:43;;;;;;;12.70;10.32;;;;;;;0.75;94.15;101674.66;1039630;28;20288;-79
2022/04/04 00:41:15;;;;;;;15.63;10.38;;;;;;;0.65;93.82;101679.03;1044341;28;20371;-80
2022/04/04 00:41:47;;;;;;;10.55;9.43;;;;;;;0.71;93.89;101681.13;1043788;28;20297;-77
2022/04/04 00:42:19;;;;;;;10.48;8.55;;;;;;;0.68;94.04;101678.75;1040392;28;20307;-80
2022/04/04 00:42:51;;;;;;;11.63;9.98;;;;;;;0.64;94.26;101672.13;1043591;28;20307;-79
2022/04/04 00:43:23;;;;;;;12.80;10.20;;;;;;;0.72;94.11;101674.91;1044549;28;20306;-79
2022/04/04 00:43:55;;;;;;;12.43;9.48;;;;;;;0.70;93.94;101673.38;1042632;28;20307;-80
2022/04/04 00:44:26;;;;;;;13.68;10.35;;;;;;;0.71;93.88;101672.44;1039289;28;20375;-80
2022/04/04 00:44:59;;;;;;;12.00;9.95;;;;;;;0.76;93.76;101668.44;1034031;28;20316;-77
2022/04/04 00:45:30;;;;;;;11.95;10.43;;;;;;;0.71;94.01;101667.19;1036243;28;20296;-79
2022/04/04 00:46:02;;;;;;;14.38;10.95;;;;;;;0.71;94.06;101668.00;1035908;28;20301;-80
2022/04/04 00:46:37;;;;;;;13.32;10.50;;;;;;;0.74;94.07;101662.50;1035976;28;20312;-79
2022/04/04 00:47:09;;;;;;;12.48;9.40;;;;;;;0.73;93.91;101660.84;1040959;28;20315;-79
2022/04/04 00:47:41;;;;;;;11.43;9.23;;;;;;;0.70;94.16;101665.53;1038153;28;20343;-80
2022/04/04 00:48:12;;;;;;;12.52;10.35;;;;;;;0.69;94.35;101667.31;1044504;28;20291;-79
2022/04/04 00:48:44;;;;;;;10.95;9.52;;;;;;;0.70;94.24;101661.09;1047400;28;20313;-80
2022/04/04 00:49:16;;;;;;;11.90;10.68;;;;;;;0.65;94.29;101663.31;1043606;28;20862;-79
2022/04/04 00:49:48;;;;;;;13.73;10.27;;;;;;;0.61;94.26;101661.91;1039489;28;20697;-79
2022/04/04 00:50:22;;;;;;;10.60;9.45;;;;;;;0.65;94.27;101659.84;1039098;28;20792;-79
2022/04/04 00:50:54;;;;;;;10.68;9.45;;;;;;;0.66;94.21;101664.13;1036633;28;20431;-79
2022/04/04 00:51:26;;;;;;;11.90;10.65;;;;;;;0.68;94.11;101656.97;1034327;28;20301;-79
2022/04/04 00:51:58;;;;;;;13.65;9.93;;;;;;;0.66;94.27;101658.88;1039387;28;20843;-76
2022/04/04 00:52:30;;;;;;;11.43;10.05;;;;;;;0.69;94.50;101661.25;1036038;28;20312;-79
2022/04/04 00:53:01;;;;;;;10.75;9.80;;;;;;;0.72;94.26;101667.06;1040605;28;20299;-77
2022/04/04 00:53:33;;;;;;;10.23;9.32;;;;;;;0.75;94.58;101656.28;1039130;28;20303;-78
2022/04/04 00:54:05;;;;;;;10.73;9.63;;;;;;;0.73;93.96;101655.59;1035807;28;20304;-80
2022/04/04 00:54:37;;;;;;;17.85;9.70;;;;;;;0.77;94.28;101656.16;1031073;28;20914;-79
2022/04/04 00:55:10;;;;;;;9.70;8.80;;;;;;;0.72;94.12;101653.09;1032011;28;20304;-78
2022/04/04 00:55:42;;;;;;;13.40;9.98;;;;;;;0.73;94.68;101660.84;1032094;28;20319;-79
2022/04/04 00:56:13;;;;;;;10.50;9.45;;;;;;;0.71;94.13;101647.03;1036524;28;20671;-79
2022/04/04 00:56:46;;;;;;;10.18;9.15;;;;;;;0.74;94.21;101652.00;1043797;28;20364;-79
2022/04/04 00:57:17;;;;;;;10.95;9.88;;;;;;;0.78;94.24;101645.53;1043641;28;20774;-79
2022/04/04 00:57:50;;;;;;;10.90;9.70;;;;;;;0.79;94.49;101649.81;1043421;28;20307;-79
2022/04/04 00:58:22;;;;;;;10.65;9.55;;;;;;;0.76;94.08;101641.38;1039773;28;20296;-80
2022/04/04 00:58:54;;;;;;;10.07;8.98;;;;;;;0.78;94.40;101648.16;1037183;28;20356;-79
2022/04/04 00:59:26;;;;;;;11.48;9.52;;;;;;;0.78;94.12;101642.91;1039029;28;20299;-78
2022/04/04 00:59:57;;;;;;;11.00;9.70;;;;;;;0.77;93.93;101638.63;1041904;28;20295;-79
2022/04/04 01:00:29;;;;;;;14.10;10.25;;;;;;;0.76;94.04;101633.53;1043572;28;20409;-79
2022/04/04 01:01:01;;;;;;;10.43;9.43;;;;;;;0.66;94.37;101644.00;1043647;28;20684;-79
2022/04/04 01:01:33;;;;;;;10.25;9.25;;;;;;;0.69;93.94;101642.88;1046385;28;20291;-79
2022/04/04 01:02:05;;;;;;;11.05;10.00;;;;;;;0.66;94.24;101632.66;1047704;28;20656;-80
2022/04/04 01:02:38;;;;;;;12.35;10.00;;;;;;;0.66;93.85;101630.88;1047712;28;20326;-79
2022/04/04 01:03:09;;;;;;;13.68;10.52;;;;;;;0.75;94.16;101627.44;1043489;28;20303;-79
2022/04/04 01:03:41;;;;;;;11.57;9.85;;;;;;;0.71;94.27;101626.06;1044292;28;20291;-79
2022/04/04 01:04:13;;;;;;;14.25;9.32;;;;;;;0.72;94.19;101629.50;1043600;28;20310;-79
2022/04/04 01:04:45;;;;;;;10.75;8.60;;;;;;;0.66;94.01;101628.25;1039278;28;20300;-79
2022/04/04 01:05:16;;;;;;;9.93;8.65;;;;;;;0.73;94.38;101624.13;1033185;28;20289;-79
2022/04/04 01:05:48;;;;;;;11.52;10.23;;;;;;;0.71;94.58;101623.44;1034929;28;20297;-79
2022/04/04 01:06:19;;;;;;;9.88;8.98;;;;;;;0.76;94.14;101623.88;1039824;28;20300;-80
2022/04/04 01:06:51;;;;;;;10.23;8.95;;;;;;;0.77;94.06;101620.28;1043674;28;20819;-79
2022/04/04 01:07:22;;;;;;;10.85;9.80;;;;;;;0.75;94.26;101626.63;1038922;28;20438;-78
2022/04/04 01:07:54;;;;;;;11.35;10.25;;;;;;;0.75;93.98;101630.06;1036188;28;20303;-79
2022/04/04 01:08:26;;;;;;;9.45;8.50;;;;;;;0.75;93.91;101619.59;1025536;28;20302;-79
2022/04/04 01:08:58;;;;;;;13.63;9.88;;;;;;;0.79;94.38;101620.97;1026656;28;20294;-80
2022/04/04 01:09:30;;;;;;;10.13;9.18;;;;;;;0.79;94.28;101623.59;1031771;28;20742;-79
2022/04/04 01:10:03;;;;;;;10.43;9.02;;;;;;;0.80;94.04;101616.56;1036551;28;20332;-80
2022/04/04 01:10:34;;;;;;;10.98;9.88;;;;;;;0.79;94.23;101620.97;1043624;28;20376;-79
2022/04/04 01:11:06;;;;;;;11.60;8.68;;;;;;;0.73;94.36;101618.88;1044797;28;20298;-77
2022/04/04 01:11:38;;;;;;;12.43;9.52;;;;;;;0.79;93.98;101618.34;1047900;28;20321;-79
2022/04/04 01:12:11;;;;;;;9.85;9.05;;;;;;;0.80;94.20;101611.31;1048311;28;20286;-79
2022/04/04 01:12:54;;;;;;;12.38;8.32;;;;;;;0.85;93.88;101607.34;1045974;28;20317;-78
2022/04/04 01:13:26;;;;;;;11.20;10.00;;;;;;;0.83;93.75;101608.44;1037901;28;20300;-79
2022/04/04 01:13:57;;;;;;;11.20;9.93;;;;;;;0.86;94.04;101618.66;1038943;28;20304;-79
2022/04/04 01:14:29;;;;;;;10.13;9.13;;;;;;;0.80;94.12;101614.75;1039400;28;20303;-78
2022/04/04 01:15:01;;;;;;;10.00;9.18;;;;;;;0.78;93.99;101611.44;1040002;28;20292;-78
2022/04/04 01:15:33;;;;;;;13.48;9.30;;;;;;;0.81;93.80;101605.94;1041685;28;20385;-79
2022/04/04 01:16:05;;;;;;;10.20;9.20;;;;;;;0.80;93.96;101606.91;1035393;28;20367;-79
2022/04/04 01:16:36;;;;;;;10.18;9.18;;;;;;;0.79;94.07;101607.88;1035084;28;20358;-78
2022/04/04 01:17:09;;;;;;;10.15;8.82;;;;;;;0.75;94.12;101609.09;1036717;28;20676;-78
2022/04/04 01:17:40;;;;;;;10.60;9.57;;;;;;;0.77;94.12;101609.78;1045008;28;20303;-78
2022/04/04 01:18:12;;;;;;;10.43;9.10;;;;;;;0.85;93.84;101607.34;1047398;28;20307;-78
2022/04/04 01:18:44;;;;;;;11.20;9.20;;;;;;;0.81;94.14;101605.94;1043702;28;20309;-77
2022/04/04 01:19:15;;;;;;;10.95;8.77;;;;;;;0.81;94.29;101605.09;1043620;28;20299;-79
2022/04/04 01:19:47;;;;;;;14.50;9.88;;;;;;;0.84;93.85;101603.06;1043777;28;20295;-80
2022/04/04 01:20:19;;;;;;;12.48;10.45;;;;;;;0.79;93.91;101596.53;1045107;28;20298;-79
2022/04/04 01:20:51;;;;;;;11.27;9.27;;;;;;;0.84;94.22;101597.81;1043871;28;20303;-79
2022/04/04 01:21:22;;;;;;;8.82;8.02;;;;;;;0.78;94.05;101600.97;1043478;28;20306;-79
2022/04/04 01:21:55;;;;;;;9.32;8.38;;;;;;;0.83;93.89;101597.97;1042972;28;20318;-78
2022/04/04 01:22:26;;;;;;;10.18;9.27;;;;;;;0.87;93.68;101594.94;1041500;28;20296;-79
2022/04/04 01:22:58;;;;;;;9.52;8.50;;;;;;;0.85;93.93;101596.88;1042373;28;20652;-79
2022/04/04 01:23:37;;;;;;;11.32;8.95;;;;;;;0.87;93.85;101599.34;1042194;28;20310;-79
2022/04/04 01:24:17;;;;;;;8.30;7.53;;;;;;;0.88;93.84;101588.72;1043945;28;20483;-78
2022/04/04 01:24:51;;;;;;;13.05;9.60;;;;;;;0.91;93.73;101591.06;1043563;28;20376;-79
2022/04/04 01:25:28;;;;;;;10.40;9.30;;;;;;;0.90;93.52;101589.41;1043325;28;20426;-79
2022/04/04 01:26:00;;;;;;;9.80;8.60;;;;;;;0.90;93.80;101586.78;1046311;28;20330;-79
2022/04/04 01:26:31;;;;;;;13.82;9.13;;;;;;;0.91;93.62;101585.81;1047627;28;20294;-79
2022/04/04 01:27:04;;;;;;;10.50;9.27;;;;;;;0.95;93.57;101593.41;1043445;28;20314;-79
2022/04/04 01:27:36;;;;;;;10.70;9.52;;;;;;;0.89;93.57;101587.75;1039329;28;20347;-79
2022/04/04 01:28:07;;;;;;;12.57;9.20;;;;;;;0.98;93.68;101585.28;1039468;28;20382;-77
2022/04/04 01:28:40;;;;;;;14.68;9.30;;;;;;;0.95;93.20;101582.94;1036090;28;20387;-79
2022/04/04 01:29:11;;;;;;;11.85;9.40;;;;;;;0.96;93.69;101581.97;1036575;28;20305;-79
2022/04/04 01:29:43;;;;;;;10.00;8.82;;;;;;;0.92;93.71;101590.09;1040947;28;20310;-80
2022/04/04 01:30:15;;;;;;;9.65;8.70;;;;;;;0.88;93.27;101575.59;1037744;28;20620;-78
2022/04/04 01:30:51;;;;;;;15.90;8.77;;;;;;;0.89;93.52;101579.88;1043362;28;20303;-79
2022/04/04 01:31:23;;;;;;;9.50;8.40;;;;;;;0.88;93.39;101580.84;1043440;28;20420;-79
2022/04/04 01:31:54;;;;;;;8.77;7.97;;;;;;;0.85;93.16;101575.88;1043615;28;20291;-79
2022/04/04 01:32:26;;;;;;;12.02;8.82;;;;;;;0.88;93.32;101580.84;1043463;28;20719;-79
2022/04/04 01:32:58;;;;;;;13.55;9.18;;;;;;;0.91;93.55;101580.59;1039029;28;20805;-79
2022/04/04 01:33:30;;;;;;;14.30;7.97;;;;;;;0.95;93.57;101569.81;1034964;28;20384;-79
2022/04/04 01:34:02;;;;;;;10.38;9.27;;;;;;;0.91;93.80;101572.72;1039993;28;20296;-79
2022/04/04 01:34:33;;;;;;;9.68;8.70;;;;;;;0.88;93.41;101569.53;1039735;28;20318;-79
2022/04/04 01:35:06;;;;;;;10.43;8.80;;;;;;;0.86;93.36;101567.06;1043702;28;20303;-79
2022/04/04 01:35:38;;;;;;;12.32;8.43;;;;;;;0.87;93.31;101571.34;1039525;28;20300;-79
2022/04/04 01:36:09;;;;;;;10.00;8.93;;;;;;;0.89;94.04;101569.41;1039898;28;20304;-79
2022/04/04 01:36:41;;;;;;;11.25;9.63;;;;;;;0.90;93.70;101562.34;1043240;28;20299;-79
2022/04/04 01:37:13;;;;;;;9.48;8.68;;;;;;;0.84;93.54;101562.91;1044319;28;20287;-79
2022/04/04 01:37:45;;;;;;;9.73;8.82;;;;;;;0.80;93.31;101562.31;1041280;28;20661;-78
2022/04/04 01:38:16;;;;;;;12.70;9.65;;;;;;;0.84;93.52;101568.97;1043376;28;20299;-80
2022/04/04 01:38:48;;;;;;;14.00;10.38;;;;;;;0.86;93.35;101567.06;1043511;28;20291;-79
2022/04/04 01:39:20;;;;;;;9.70;8.80;;;;;;;0.87;93.31;101557.38;1043540;28;20300;-79
2022/04/04 01:39:52;;;;;;;9.93;8.88;;;;;;;0.86;93.37;101561.81;1043334;28;20306;-79
2022/04/04 01:40:23;;;;;;;11.52;9.52;;;;;;;0.87;93.69;101558.22;1043686;28;20291;-78
2022/04/04 01:40:55;;;;;;;9.52;8.55;;;;;;;0.83;93.52;101564.69;1045509;28;20287;-80
2022/04/04 01:41:27;;;;;;;14.75;9.93;;;;;;;0.91;93.59;101554.34;1043720;28;20291;-79
2022/04/04 01:41:59;;;;;;;10.52;9.32;;;;;;;0.97;93.15;101557.38;1039683;28;20373;-79
2022/04/04 01:42:31;;;;;;;16.77;9.95;;;;;;;0.96;93.53;101555.72;1042077;28;20761;-79
2022/04/04 01:43:04;;;;;;;12.32;9.60;;;;;;;0.96;93.26;101553.94;1033088;28;20301;-79
2022/04/04 01:43:35;;;;;;;9.45;8.43;;;;;;;0.96;93.55;101558.34;1034343;28;20376;-79
2022/04/04 01:44:07;;;;;;;12.02;10.77;;;;;;;0.98;93.33;101554.63;1037672;28;20292;-79
2022/04/04 01:44:39;;;;;;;10.60;9.30;;;;;;;0.97;93.35;101552.97;1033083;28;20719;-78
2022/04/04 01:45:11;;;;;;;10.85;9.75;;;;;;;0.91;93.19;101545.66;1039689;28;20813;-79
2022/04/04 01:46:33;;;;;;;10.40;9.27;;;;;;;0.90;93.54;101546.63;1042342;28;20681;-79
2022/04/04 01:47:05;;;;;;;10.50;9.20;;;;;;;0.89;93.62;101545.78;1044239;28;20411;-79
2022/04/04 01:47:38;;;;;;;11.25;10.07;;;;;;;0.96;93.37;101545.25;1047506;28;20664;-79
2022/04/04 01:48:10;;;;;;;11.35;10.18;;;;;;;0.96;93.08;101535.59;1044502;28;20326;-80
2022/04/04 01:48:41;;;;;;;11.38;9.75;;;;;;;0.97;93.19;101541.66;1040215;28;20310;-79
2022/04/04 01:49:13;;;;;;;10.50;9.27;;;;;;;0.98;93.05;101536.28;1039962;28;20299;-77
2022/04/04 01:49:45;;;;;;;12.07;9.77;;;;;;;0.99;93.20;101542.34;1041647;28;20872;-79
2022/04/04 01:50:16;;;;;;;14.43;10.18;;;;;;;0.97;92.97;101531.16;1042001;28;20295;-79
2022/04/04 01:50:48;;;;;;;11.32;9.50;;;;;;;1.01;93.20;101533.38;1047916;28;20313;-78
2022/04/04 01:51:21;;;;;;;11.65;10.00;;;;;;;0.97;93.23;101532.00;1048912;28;20294;-79
2022/04/04 01:51:52;;;;;;;10.38;9.10;;;;;;;1.02;92.74;101536.81;1046620;28;20649;-79
2022/04/04 01:52:24;;;;;;;14.52;11.25;;;;;;;1.05;92.88;101528.69;1044075;28;20807;-79
2022/04/04 01:53:25;;;;;;;11.05;9.55;;;;;;;1.06;92.98;101532.97;1044328;28;20406;-80
2022/04/04 01:53:51;;;;;;;15.02;9.40;;;;;;;1.05;92.97;101528.69;1044557;28;20291;-78
2022/04/04 01:54:23;;;;;;;11.32;9.82;;;;;;;1.06;92.77;101514.59;1042246;28;20697;-78
2022/04/04 01:54:55;;;;;;;14.63;10.05;;;;;;;1.04;92.41;101511.28;1047517;28;20734;-79
2022/04/04 01:55:26;;;;;;;10.65;9.52;;;;;;;1.00;92.70;101517.78;1048675;28;20305;-78
2022/04/04 01:56:00;;;;;;;10.95;9.85;;;;;;;1.03;92.48;101515.69;1046874;28;20302;-78
2022/04/04 01:56:33;;;;;;;10.43;9.43;;;;;;;1.03;92.63;101509.63;1037647;28;20790;-78
2022/04/04 01:57:04;;;;;;;11.52;9.70;;;;;;;1.03;92.87;101509.63;1040107;28;20287;-79
2022/04/04 01:57:36;;;;;;;10.38;9.27;;;;;;;1.03;93.05;101512.25;1040315;28;20292;-79
2022/04/04 01:58:07;;;;;;;13.32;10.20;;;;;;;1.05;92.50;101512.94;1040822;28;20300;-78
2022/04/04 01:58:40;;;;;;;13.23;10.98;;;;;;;1.03;92.40;101509.63;1044263;28;20299;-78
2022/04/04 01:59:11;;;;;;;12.52;10.65;;;;;;;1.04;92.17;101514.72;1039940;28;20311;-79
2022/04/04 01:59:43;;;;;;;11.35;10.27;;;;;;;1.07;92.63;101511.81;1040409;28;20689;-78
2022/04/04 02:00:15;;;;;;;12.23;10.27;;;;;;;1.09;92.44;101509.06;1043837;28;20302;-79
2022/04/04 02:00:47;;;;;;;11.32;10.23;;;;;;;1.04;92.62;101512.09;1041199;28;20302;-78
2022/04/04 02:01:20;;;;;;;13.70;10.98;;;;;;;1.04;92.17;101506.03;1046229;28;20294;-79
2022/04/04 02:01:52;;;;;;;11.20;9.77;;;;;;;1.04;92.52;101508.66;1038050;28;20447;-78
2022/04/04 02:02:24;;;;;;;11.07;10.07;;;;;;;1.08;92.60;101510.03;1044176;28;20330;-78
2022/04/04 02:02:56;;;;;;;12.40;11.15;;;;;;;1.09;92.40;101507.28;1041474;28;20312;-79
2022/04/04 02:03:29;;;;;;;12.95;10.32;;;;;;;1.08;92.27;101503.00;1040737;28;20287;-79
2022/04/04 02:04:01;;;;;;;11.15;10.07;;;;;;;1.11;92.16;101499.28;1042764;28;20344;-78
2022/04/04 02:04:33;;;;;;;11.60;10.43;;;;;;;1.11;92.02;101501.91;1036860;28;20300;-78
2022/04/04 02:05:05;;;;;;;15.27;10.77;;;;;;;1.09;92.06;101494.16;1036297;28;20281;-79
2022/04/04 02:05:37;;;;;;;11.43;10.25;;;;;;;1.11;92.30;101496.66;1033764;28;20289;-79
2022/04/04 02:06:09;;;;;;;10.27;9.23;;;;;;;1.08;91.76;101494.28;1037372;28;20305;-78
2022/04/04 02:06:40;;;;;;;11.82;9.93;;;;;;;1.06;91.93;101493.59;1042561;28;20654;-79
2022/04/04 02:07:12;;;;;;;14.90;10.70;;;;;;;1.10;91.94;101489.75;1042577;28;20299;-78
2022/04/04 02:07:43;;;;;;;12.68;10.35;;;;;;;1.13;91.43;101492.09;1039938;28;20304;-79
2022/04/04 02:08:15;;;;;;;11.45;10.18;;;;;;;1.10;92.15;101489.75;1036707;28;20312;-78
2022/04/04 02:08:47;;;;;;;16.00;10.27;;;;;;;1.15;91.79;101487.56;1044463;28;20306;-78
2022/04/04 02:09:18;;;;;;;11.73;9.93;;;;;;;1.14;92.03;101478.84;1044215;28;20295;-79
2022/04/04 02:09:50;;;;;;;10.88;8.95;;;;;;;1.20;91.89;101485.34;1041647;28;20300;-78
2022/04/04 02:10:21;;;;;;;12.07;10.45;;;;;;;1.20;91.51;101488.78;1044139;28;20291;-78
2022/04/04 02:10:53;;;;;;;12.60;10.20;;;;;;;1.19;91.63;101479.25;1040739;28;20295;-78
2022/04/04 02:11:25;;;;;;;14.82;10.57;;;;;;;1.20;91.57;101485.34;1040141;28;20307;-78
2022/04/04 02:11:57;;;;;;;11.13;9.55;;;;;;;1.19;91.47;101475.81;1040236;28;20284;-78
2022/04/04 02:12:30;;;;;;;13.27;9.80;;;;;;;1.20;91.69;101477.47;1037871;28;20295;-78
2022/04/04 02:13:02;;;;;;;14.15;9.93;;;;;;;1.19;91.46;101479.25;1044423;28;20310;-78
2022/04/04 02:13:33;;;;;;;14.38;9.38;;;;;;;1.13;91.14;101474.56;1044162;28;20878;-78
2022/04/04 02:14:05;;;;;;;11.55;10.35;;;;;;;1.12;91.82;101475.53;1045215;28;20283;-79
2022/04/04 02:14:37;;;;;;;11.32;10.20;;;;;;;1.18;91.16;101472.34;1044761;28;20299;-78
2022/04/04 02:15:08;;;;;;;12.13;10.82;;;;;;;1.17;91.49;101472.50;1043900;28;20582;-79
2022/04/04 02:15:40;;;;;;;11.75;9.93;;;;;;;1.18;91.32;101474.16;1044459;28;20299;-78
2022/04/04 02:16:12;;;;;;;12.18;10.65;;;;;;;1.20;91.07;101474.84;1039830;28;20382;-78
2022/04/04 02:16:45;;;;;;;11.50;9.82;;;;;;;1.25;91.02;101475.25;1040126;28;20327;-77
2022/04/04 02:17:17;;;;;;;10.60;9.50;;;;;;;1.26;91.13;101474.28;1040258;28;20618;-78
2022/04/04 02:17:50;;;;;;;11.88;9.90;;;;;;;1.25;90.40;101472.63;1040434;28;20296;-79
2022/04/04 02:18:22;;;;;;;12.18;10.25;;;;;;;1.25;90.83;101464.75;1040081;28;20800;-79
2022/04/04 02:18:53;;;;;;;14.80;10.45;;;;;;;1.19;90.70;101470.56;1041192;28;20291;-78
2022/04/04 02:19:25;;;;;;;11.25;10.15;;;;;;;1.23;91.01;101464.06;1044278;28;20657;-79
2022/04/04 02:19:57;;;;;;;12.43;11.07;;;;;;;1.29;90.30;101473.16;1044763;28;20299;-79
2022/04/04 02:20:28;;;;;;;11.60;10.50;;;;;;;1.30;90.61;101469.56;1048149;28;20290;-78
2022/04/04 02:21:01;;;;;;;12.60;10.07;;;;;;;1.26;90.21;101468.19;1044982;28;20334;-78
2022/04/04 02:21:33;;;;;;;14.00;10.00;;;;;;;1.26;90.36;101458.53;1048077;28;20321;-78
2022/04/04 02:22:04;;;;;;;11.45;10.35;;;;;;;1.29;90.16;101463.50;1048136;28;20791;-78
2022/04/04 02:22:37;;;;;;;12.02;10.25;;;;;;;1.33;90.56;101459.59;1048507;28;20294;-78
2022/04/04 02:23:08;;;;;;;14.10;10.93;;;;;;;1.28;90.48;101451.34;1048624;28;20305;-79
2022/04/04 02:23:40;;;;;;;15.40;11.40;;;;;;;1.27;90.13;101448.84;1048105;28;20869;-78
2022/04/04 02:24:12;;;;;;;12.18;10.98;;;;;;;1.31;90.34;101451.06;1045843;28;20294;-77
2022/04/04 02:24:43;;;;;;;12.40;10.70;;;;;;;1.35;90.03;101447.16;1040820;28;20370;-78
2022/04/04 02:25:15;;;;;;;11.13;9.73;;;;;;;1.35;90.00;101446.34;1047553;28;20310;-78
2022/04/04 02:25:48;;;;;;;11.52;10.38;;;;;;;1.33;89.76;101449.13;1048241;28;20309;-78
2022/04/04 02:26:21;;;;;;;10.88;9.82;;;;;;;1.37;89.81;101445.25;1044843;28;20303;-78
2022/04/04 02:26:52;;;;;;;12.95;11.23;;;;;;;1.39;90.00;101450.38;1048292;28;20452;-77
2022/04/04 02:27:24;;;;;;;11.05;9.95;;;;;;;1.38;90.02;101446.91;1048297;28;20312;-78
2022/04/04 02:27:55;;;;;;;12.70;11.13;;;;;;;1.36;89.55;101437.50;1044574;28;20382;-77
2022/04/04 02:28:27;;;;;;;11.52;10.32;;;;;;;1.36;89.76;101446.19;1041797;28;20825;-77
2022/04/04 02:28:59;;;;;;;11.70;10.45;;;;;;;1.37;89.87;101440.00;1039637;28;20308;-78
2022/04/04 02:29:31;;;;;;;11.57;10.45;;;;;;;1.37;89.93;101442.63;1038894;28;20300;-78
2022/04/04 02:30:03;;;;;;;14.10;10.88;;;;;;;1.41;89.86;101444.00;1040051;28;20390;-78